Time;durP1;ratioP1;P1;durP2;ratioP2;P2;SDS_P1;SDS_P2;PMS_P1;PMS_P2;Temp;Humidity;BMP_temperature;BMP_pressure;BME280_temperature;BME280_humidity;BME280_pressure;Samples;Min_cycle;Max_cycle;Signal;HPM_P1;HPM_P2
2023/04/26 00:01:28;;;;;;;4.32;0.60;;;;;;;;;;5008134;28;20058;-57
2023/04/26 00:03:56;;;;;;;2.45;0.52;;;;;;;;;;5010766;28;20038;-57
2023/04/26 00:06:23;;;;;;;2.25;0.43;;;;;;;;;;5009701;28;20073;-61
2023/04/26 00:08:50;;;;;;;3.17;0.50;;;;;;;;;;5011065;28;20037;-56
2023/04/26 00:11:16;;;;;;;2.63;0.60;;;;;;;;;;5010562;28;20121;-57
2023/04/26 00:13:43;;;;;;;1.80;0.60;;;;;;;;;;5009844;28;20113;-63
2023/04/26 00:16:10;;;;;;;4.40;0.50;;;;;;;;;;5009101;28;20046;-58
2023/04/26 00:18:36;;;;;;;2.38;0.65;;;;;;;;;;5006648;28;20593;-60
2023/04/26 00:21:03;;;;;;;7.03;0.55;;;;;;;;;;5006186;28;20060;-58
2023/04/26 00:23:30;;;;;;;5.47;0.60;;;;;;;;;;5008620;28;21885;-58
2023/04/26 00:25:57;;;;;;;6.35;0.77;;;;;;;;;;5008745;28;20464;-60
2023/04/26 00:28:24;;;;;;;2.75;0.50;;;;;;;;;;5008734;28;20156;-57
2023/04/26 00:30:51;;;;;;;1.83;0.40;;;;;;;;;;5007939;28;20048;-61
2023/04/26 00:33:17;;;;;;;2.25;0.50;;;;;;;;;;5009698;28;20034;-58
2023/04/26 00:35:44;;;;;;;3.22;0.57;;;;;;;;;;5022696;28;20041;-58
2023/04/26 00:38:11;;;;;;;2.28;0.60;;;;;;;;;;5009384;28;20045;-60
2023/04/26 00:40:37;;;;;;;4.47;0.50;;;;;;;;;;5008494;28;20896;-61
2023/04/26 00:43:05;;;;;;;2.85;0.50;;;;;;;;;;5009139;28;20045;-60
2023/04/26 00:45:32;;;;;;;1.80;0.45;;;;;;;;;;5009079;28;20037;-58
2023/04/26 00:48:00;;;;;;;3.17;0.50;;;;;;;;;;5022637;28;20057;-58
2023/04/26 00:50:27;;;;;;;6.38;0.60;;;;;;;;;;5008261;28;20526;-58
2023/04/26 00:52:54;;;;;;;1.52;0.50;;;;;;;;;;5023990;28;20119;-58
2023/04/26 00:55:22;;;;;;;1.70;0.50;;;;;;;;;;5015542;28;20079;-60
2023/04/26 00:57:48;;;;;;;3.03;0.52;;;;;;;;;;5005357;28;20407;-57
2023/04/26 01:00:15;;;;;;;3.38;0.77;;;;;;;;;;5008955;28;21182;-60
2023/04/26 01:02:42;;;;;;;3.47;0.70;;;;;;;;;;5008210;28;20135;-62
2023/04/26 01:05:09;;;;;;;3.38;0.73;;;;;;;;;;5011373;28;20533;-56
2023/04/26 01:07:40;;;;;;;4.50;0.80;;;;;;;;;;5008001;28;20097;-59
2023/04/26 01:10:08;;;;;;;5.80;0.52;;;;;;;;;;5010463;28;20046;-57
2023/04/26 01:12:35;;;;;;;5.47;0.68;;;;;;;;;;5008564;28;20099;-59
2023/04/26 01:15:02;;;;;;;1.77;0.60;;;;;;;;;;5007263;28;20080;-59
2023/04/26 01:17:29;;;;;;;5.60;0.80;;;;;;;;;;5022863;28;20046;-58
2023/04/26 01:19:56;;;;;;;7.70;0.77;;;;;;;;;;5007815;28;20034;-58
2023/04/26 01:22:23;;;;;;;8.00;0.90;;;;;;;;;;5007090;28;20033;-59
2023/04/26 01:24:50;;;;;;;5.00;0.85;;;;;;;;;;5009321;28;20038;-57
2023/04/26 01:27:17;;;;;;;4.68;0.70;;;;;;;;;;5009903;28;20128;-57
2023/04/26 01:29:45;;;;;;;3.97;0.50;;;;;;;;;;5009172;28;20132;-57
2023/04/26 01:32:11;;;;;;;5.78;0.82;;;;;;;;;;5009775;28;20046;-57
2023/04/26 01:34:38;;;;;;;9.45;0.88;;;;;;;;;;5008162;28;20034;-58
2023/04/26 01:37:06;;;;;;;2.78;0.60;;;;;;;;;;5007719;28;20115;-58
2023/04/26 01:39:33;;;;;;;3.58;0.80;;;;;;;;;;5005251;28;20037;-58
2023/04/26 01:42:01;;;;;;;3.55;0.73;;;;;;;;;;5006907;28;20046;-56
2023/04/26 01:44:28;;;;;;;2.20;0.60;;;;;;;;;;5022275;28;20410;-58
2023/04/26 01:46:55;;;;;;;2.47;0.60;;;;;;;;;;5006584;28;20609;-59
2023/04/26 01:49:22;;;;;;;1.67;0.50;;;;;;;;;;5006424;28;20415;-58
2023/04/26 01:51:48;;;;;;;5.05;0.80;;;;;;;;;;5007532;28;20069;-58
2023/04/26 01:54:15;;;;;;;2.17;0.57;;;;;;;;;;5007266;28;20067;-58
2023/04/26 01:56:42;;;;;;;5.10;0.60;;;;;;;;;;5006364;28;20048;-60
2023/04/26 01:59:08;;;;;;;13.27;0.90;;;;;;;;;;5007511;28;20168;-59
2023/04/26 02:01:36;;;;;;;7.93;0.80;;;;;;;;;;5006940;28;20065;-61
2023/04/26 02:04:03;;;;;;;5.75;1.05;;;;;;;;;;5021757;28;20041;-59
2023/04/26 02:06:31;;;;;;;4.30;0.60;;;;;;;;;;5008579;28;20045;-63
2023/04/26 02:08:57;;;;;;;10.40;1.17;;;;;;;;;;5009183;28;20575;-62
2023/04/26 02:11:25;;;;;;;6.78;0.80;;;;;;;;;;5007711;28;20091;-62
2023/04/26 02:13:52;;;;;;;7.43;0.95;;;;;;;;;;5010000;28;20483;-62
2023/04/26 02:16:20;;;;;;;5.28;0.80;;;;;;;;;;5011728;28;20495;-58
2023/04/26 02:18:48;;;;;;;1.70;0.47;;;;;;;;;;5010369;28;20497;-59
2023/04/26 02:21:17;;;;;;;2.47;0.50;;;;;;;;;;5011267;28;20079;-63
2023/04/26 02:23:44;;;;;;;2.70;0.93;;;;;;;;;;5024327;28;20030;-63
2023/04/26 02:26:11;;;;;;;3.85;0.95;;;;;;;;;;5009331;28;20049;-59
2023/04/26 02:28:38;;;;;;;4.47;0.80;;;;;;;;;;5009805;28;20127;-61
2023/04/26 02:31:05;;;;;;;5.18;0.75;;;;;;;;;;5010494;28;20042;-58
2023/04/26 02:33:32;;;;;;;4.25;0.75;;;;;;;;;;5010134;28;20042;-58
2023/04/26 02:35:58;;;;;;;6.25;0.93;;;;;;;;;;5010989;28;20049;-61
2023/04/26 02:38:26;;;;;;;3.20;0.80;;;;;;;;;;5009917;28;20057;-61
2023/04/26 02:41:02;;;;;;;4.05;0.70;;;;;;;;;;5010589;28;20053;-58
2023/04/26 02:43:29;;;;;;;7.10;1.10;;;;;;;;;;5010654;28;20046;-58
2023/04/26 02:45:57;;;;;;;6.88;1.13;;;;;;;;;;5012293;28;20113;-56
2023/04/26 02:48:24;;;;;;;9.75;1.00;;;;;;;;;;5006401;28;20044;-61
2023/04/26 02:50:52;;;;;;;5.32;0.95;;;;;;;;;;5026741;28;20076;-60
2023/04/26 02:53:18;;;;;;;4.93;1.02;;;;;;;;;;5009236;28;20030;-57
2023/04/26 02:56:05;;;;;;;5.57;1.00;;;;;;;;;;5006216;28;21910;-58
2023/04/26 02:58:32;;;;;;;8.52;1.52;;;;;;;;;;5017147;28;20046;-54
2023/04/26 03:00:59;;;;;;;6.18;1.48;;;;;;;;;;5012420;28;20837;-57
2023/04/26 03:03:25;;;;;;;8.10;1.77;;;;;;;;;;5006017;28;20037;-61
2023/04/26 03:05:52;;;;;;;14.70;1.75;;;;;;;;;;5008678;28;20041;-60
2023/04/26 03:08:19;;;;;;;5.05;1.73;;;;;;;;;;5006263;28;20110;-58
2023/04/26 03:10:45;;;;;;;8.45;1.50;;;;;;;;;;5008088;28;20046;-58
2023/04/26 03:13:12;;;;;;;6.85;1.50;;;;;;;;;;5006887;28;20207;-60
2023/04/26 03:15:39;;;;;;;6.68;1.23;;;;;;;;;;5006723;28;20045;-57
2023/04/26 03:18:05;;;;;;;6.03;1.30;;;;;;;;;;5005238;28;20537;-57
2023/04/26 03:20:32;;;;;;;5.47;1.33;;;;;;;;;;5004947;28;20044;-57
2023/04/26 03:22:59;;;;;;;9.73;1.63;;;;;;;;;;5005559;28;20076;-55
2023/04/26 03:25:26;;;;;;;5.90;1.40;;;;;;;;;;5005661;28;20173;-59
2023/04/26 03:27:54;;;;;;;4.03;1.50;;;;;;;;;;5008159;28;20054;-58
2023/04/26 03:30:20;;;;;;;4.20;1.38;;;;;;;;;;5008218;28;20065;-55
2023/04/26 03:32:47;;;;;;;5.15;1.55;;;;;;;;;;5007095;28;20125;-65
2023/04/26 03:35:14;;;;;;;9.45;1.90;;;;;;;;;;5007870;28;20084;-59
2023/04/26 03:37:41;;;;;;;6.82;1.80;;;;;;;;;;5007238;28;20045;-58
2023/04/26 03:40:08;;;;;;;3.95;1.60;;;;;;;;;;5010475;28;20148;-58
2023/04/26 03:42:36;;;;;;;7.10;1.70;;;;;;;;;;5007808;28;20068;-58
2023/04/26 03:45:03;;;;;;;5.40;1.70;;;;;;;;;;5009175;28;20038;-56
2023/04/26 03:47:32;;;;;;;4.22;1.33;;;;;;;;;;5022859;28;20513;-59
2023/04/26 03:49:59;;;;;;;7.68;1.60;;;;;;;;;;5010682;28;20874;-59
2023/04/26 03:52:26;;;;;;;3.60;1.52;;;;;;;;;;5008008;28;20045;-56
2023/04/26 03:54:52;;;;;;;6.20;1.60;;;;;;;;;;5009533;28;20037;-58
2023/04/26 03:57:19;;;;;;;10.07;1.75;;;;;;;;;;5008520;28;20041;-60
2023/04/26 03:59:46;;;;;;;5.93;1.60;;;;;;;;;;5008330;28;20045;-58
2023/04/26 04:02:12;;;;;;;9.57;1.83;;;;;;;;;;5009732;28;20111;-57
2023/04/26 04:04:39;;;;;;;8.68;1.77;;;;;;;;;;5008959;28;21932;-58
2023/04/26 04:07:06;;;;;;;13.15;2.13;;;;;;;;;;5010696;28;20065;-56
2023/04/26 04:09:33;;;;;;;6.00;1.52;;;;;;;;;;5006607;28;20098;-57
2023/04/26 04:11:59;;;;;;;6.75;1.63;;;;;;;;;;5008770;28;20041;-61
2023/04/26 04:14:26;;;;;;;6.38;1.50;;;;;;;;;;5007316;28;20088;-52
2023/04/26 04:16:53;;;;;;;13.38;1.73;;;;;;;;;;5007361;28;20034;-57
2023/04/26 04:19:19;;;;;;;5.75;1.40;;;;;;;;;;5009167;28;20034;-57
2023/04/26 04:21:46;;;;;;;6.03;1.30;;;;;;;;;;5008100;28;20050;-57
2023/04/26 04:24:13;;;;;;;3.90;1.55;;;;;;;;;;5008560;28;20048;-56
2023/04/26 04:26:40;;;;;;;6.75;1.52;;;;;;;;;;5008167;28;20047;-58
2023/04/26 04:29:09;;;;;;;4.95;1.60;;;;;;;;;;5008451;28;20037;-57
2023/04/26 04:31:36;;;;;;;4.97;1.15;;;;;;;;;;5008739;28;20190;-57
2023/04/26 04:34:03;;;;;;;6.68;1.38;;;;;;;;;;5008650;28;20038;-57
2023/04/26 04:36:30;;;;;;;10.00;1.42;;;;;;;;;;5007567;28;20053;-56
2023/04/26 04:38:57;;;;;;;12.05;1.88;;;;;;;;;;5006490;28;20042;-58
2023/04/26 04:41:23;;;;;;;5.18;1.50;;;;;;;;;;5005784;28;20053;-58
2023/04/26 04:43:50;;;;;;;5.80;1.38;;;;;;;;;;5007662;28;20159;-59
2023/04/26 04:46:17;;;;;;;4.63;1.27;;;;;;;;;;5009015;28;22008;-58
2023/04/26 04:48:43;;;;;;;6.60;1.50;;;;;;;;;;5006292;28;20723;-57
2023/04/26 04:51:10;;;;;;;6.05;1.42;;;;;;;;;;5008181;28;20042;-57
2023/04/26 04:53:37;;;;;;;9.02;1.50;;;;;;;;;;5007692;28;20046;-58
2023/04/26 04:56:04;;;;;;;11.27;1.52;;;;;;;;;;5007314;28;20052;-58
2023/04/26 04:58:31;;;;;;;5.65;1.40;;;;;;;;;;5006025;28;20046;-56
2023/04/26 05:01:00;;;;;;;6.25;1.33;;;;;;;;;;5008207;28;20038;-58
2023/04/26 05:03:26;;;;;;;7.60;1.40;;;;;;;;;;5007148;28;20041;-57
2023/04/26 05:05:53;;;;;;;6.40;1.30;;;;;;;;;;5008977;28;20041;-56
2023/04/26 05:08:19;;;;;;;6.18;1.77;;;;;;;;;;5006936;28;20905;-59
2023/04/26 05:10:46;;;;;;;5.45;1.45;;;;;;;;;;5008886;28;20720;-57
2023/04/26 05:13:13;;;;;;;11.65;1.40;;;;;;;;;;5006996;28;20057;-55
2023/04/26 05:15:39;;;;;;;8.65;2.10;;;;;;;;;;5007320;28;20038;-56
2023/04/26 05:18:06;;;;;;;4.28;1.15;;;;;;;;;;5020918;28;20080;-57
2023/04/26 05:20:33;;;;;;;7.35;1.48;;;;;;;;;;5006229;28;20030;-56
2023/04/26 05:22:59;;;;;;;4.40;1.35;;;;;;;;;;5007934;28;20065;-55
2023/04/26 05:25:26;;;;;;;11.50;1.52;;;;;;;;;;5007542;28;20051;-57
2023/04/26 05:27:53;;;;;;;5.28;1.35;;;;;;;;;;5007040;28;20072;-57
2023/04/26 05:30:19;;;;;;;6.10;1.50;;;;;;;;;;5022547;28;20068;-56
2023/04/26 05:32:46;;;;;;;3.90;1.13;;;;;;;;;;5007211;28;20086;-57
2023/04/26 05:35:13;;;;;;;10.18;1.52;;;;;;;;;;5007456;28;20037;-56
2023/04/26 05:37:39;;;;;;;7.32;1.27;;;;;;;;;;5005498;28;20835;-56
2023/04/26 05:40:07;;;;;;;5.43;1.50;;;;;;;;;;5007099;28;20037;-55
2023/04/26 05:42:34;;;;;;;6.82;1.38;;;;;;;;;;5006738;28;20037;-53
2023/04/26 05:45:00;;;;;;;7.05;1.40;;;;;;;;;;5005969;28;20038;-59
2023/04/26 05:47:27;;;;;;;7.72;1.45;;;;;;;;;;5020690;28;20054;-52
2023/04/26 05:49:54;;;;;;;11.15;1.73;;;;;;;;;;5006776;28;20128;-56
2023/04/26 05:52:20;;;;;;;7.00;1.67;;;;;;;;;;5007043;28;20106;-56
2023/04/26 05:54:47;;;;;;;9.95;1.13;;;;;;;;;;5023643;28;20040;-57
2023/04/26 05:57:14;;;;;;;3.35;1.05;;;;;;;;;;5005789;28;20129;-60
2023/04/26 05:59:41;;;;;;;1.50;0.50;;;;;;;;;;5005619;28;20044;-58
2023/04/26 06:02:07;;;;;;;4.30;1.27;;;;;;;;;;5007712;28;20045;-58
2023/04/26 06:04:34;;;;;;;4.90;1.15;;;;;;;;;;5006134;28;20050;-57
2023/04/26 06:07:01;;;;;;;3.40;1.08;;;;;;;;;;5007504;28;20065;-57
2023/04/26 06:09:28;;;;;;;5.15;1.17;;;;;;;;;;5020379;28;20127;-58
2023/04/26 06:11:54;;;;;;;2.78;0.90;;;;;;;;;;5008828;28;20099;-56
2023/04/26 06:14:21;;;;;;;6.85;1.40;;;;;;;;;;5004549;28;20042;-58
2023/04/26 06:16:48;;;;;;;5.45;1.17;;;;;;;;;;5006980;28;20038;-57
2023/04/26 06:19:14;;;;;;;4.28;1.45;;;;;;;;;;5005033;28;20053;-56
2023/04/26 06:21:41;;;;;;;3.65;1.38;;;;;;;;;;5006609;28;20518;-57
2023/04/26 06:24:08;;;;;;;4.88;1.38;;;;;;;;;;5006330;28;20072;-56
2023/04/26 06:26:35;;;;;;;4.18;1.30;;;;;;;;;;5005737;28;20113;-57
2023/04/26 06:29:02;;;;;;;4.93;1.60;;;;;;;;;;5006410;28;20039;-57
2023/04/26 06:31:29;;;;;;;4.53;1.38;;;;;;;;;;5005167;28;20064;-61
2023/04/26 06:33:55;;;;;;;4.53;1.33;;;;;;;;;;5005383;28;20099;-56
2023/04/26 06:36:22;;;;;;;4.70;1.25;;;;;;;;;;5006944;28;20041;-59
2023/04/26 06:38:48;;;;;;;4.03;1.45;;;;;;;;;;5005956;28;20139;-57
2023/04/26 06:41:15;;;;;;;7.32;1.52;;;;;;;;;;5007068;28;20056;-57
2023/04/26 06:43:42;;;;;;;5.68;1.20;;;;;;;;;;5006829;28;20068;-56
2023/04/26 06:46:09;;;;;;;7.00;1.55;;;;;;;;;;5007336;28;20045;-54
2023/04/26 06:48:35;;;;;;;4.18;1.27;;;;;;;;;;5005506;28;20134;-57
2023/04/26 06:51:08;;;;;;;3.75;1.63;;;;;;;;;;5007164;28;20482;-62
2023/04/26 06:53:35;;;;;;;4.15;1.60;;;;;;;;;;5006433;28;20048;-56
2023/04/26 06:56:02;;;;;;;4.78;1.40;;;;;;;;;;5009017;28;20060;-58
2023/04/26 06:58:29;;;;;;;4.63;1.30;;;;;;;;;;5009710;28;20068;-58
2023/04/26 07:00:55;;;;;;;8.27;1.38;;;;;;;;;;5011022;28;20050;-58
2023/04/26 07:03:22;;;;;;;9.35;1.30;;;;;;;;;;5011320;28;20045;-57
2023/04/26 07:05:49;;;;;;;2.88;1.13;;;;;;;;;;5010383;28;20148;-57
2023/04/26 07:08:16;;;;;;;4.65;1.42;;;;;;;;;;5009761;28;20095;-57
2023/04/26 07:10:42;;;;;;;8.48;2.30;;;;;;;;;;5011217;28;20038;-58
2023/04/26 07:13:09;;;;;;;18.40;2.83;;;;;;;;;;5015569;28;20041;-53
2023/04/26 07:15:36;;;;;;;9.10;2.25;;;;;;;;;;5018101;28;20588;-53
2023/04/26 07:18:02;;;;;;;4.75;1.70;;;;;;;;;;5016163;28;20403;-53
2023/04/26 07:20:29;;;;;;;5.50;1.27;;;;;;;;;;5012662;28;20847;-56
2023/04/26 07:22:56;;;;;;;5.53;1.40;;;;;;;;;;5010858;28;20042;-56
2023/04/26 07:25:23;;;;;;;6.43;1.35;;;;;;;;;;5009989;28;20525;-55
2023/04/26 07:27:50;;;;;;;4.25;1.40;;;;;;;;;;5009993;28;20057;-56
2023/04/26 07:30:17;;;;;;;5.03;1.30;;;;;;;;;;5009107;28;20058;-57
2023/04/26 07:32:44;;;;;;;4.45;1.27;;;;;;;;;;5008203;28;20750;-56
2023/04/26 07:35:14;;;;;;;5.70;1.63;;;;;;;;;;5010606;28;20041;-58
2023/04/26 07:37:42;;;;;;;6.60;1.80;;;;;;;;;;5009583;28;20053;-55
2023/04/26 07:40:09;;;;;;;4.45;1.85;;;;;;;;;;5009663;28;20100;-56
2023/04/26 07:42:36;;;;;;;5.75;1.50;;;;;;;;;;5008307;28;20045;-56
2023/04/26 07:45:03;;;;;;;3.63;1.23;;;;;;;;;;5010095;28;20525;-57
2023/04/26 07:47:30;;;;;;;4.22;1.45;;;;;;;;;;5008024;28;20410;-56
2023/04/26 07:49:57;;;;;;;5.22;1.60;;;;;;;;;;5024708;28;20041;-57
2023/04/26 07:52:23;;;;;;;5.75;1.38;;;;;;;;;;5008778;28;20052;-57
2023/04/26 07:54:50;;;;;;;9.40;1.67;;;;;;;;;;5009071;28;20127;-56
2023/04/26 07:57:17;;;;;;;4.63;1.48;;;;;;;;;;5007605;28;20088;-57
2023/04/26 07:59:43;;;;;;;8.65;1.90;;;;;;;;;;5008187;28;20590;-57
2023/04/26 08:02:10;;;;;;;6.10;1.90;;;;;;;;;;5010283;28;20050;-56
2023/04/26 08:04:37;;;;;;;6.47;1.33;;;;;;;;;;5008560;28;20502;-58
2023/04/26 08:07:03;;;;;;;8.50;2.03;;;;;;;;;;5009021;28;20054;-54
2023/04/26 08:09:30;;;;;;;7.82;1.90;;;;;;;;;;5009123;28;20148;-57
2023/04/26 08:11:57;;;;;;;4.63;1.38;;;;;;;;;;5010004;28;20034;-57
2023/04/26 08:14:24;;;;;;;4.82;1.50;;;;;;;;;;5007672;28;20042;-56
2023/04/26 08:16:51;;;;;;;6.70;1.40;;;;;;;;;;5009446;28;20108;-57
2023/04/26 08:19:17;;;;;;;7.13;1.60;;;;;;;;;;5006999;28;20066;-57
2023/04/26 08:21:44;;;;;;;6.57;1.58;;;;;;;;;;5008742;28;20129;-58
2023/04/26 08:24:11;;;;;;;6.60;1.83;;;;;;;;;;5009173;28;20129;-59
2023/04/26 08:26:37;;;;;;;5.93;1.55;;;;;;;;;;5009410;28;20049;-55
2023/04/26 08:29:05;;;;;;;3.47;1.42;;;;;;;;;;5007894;28;20497;-60
2023/04/26 08:31:31;;;;;;;8.73;1.58;;;;;;;;;;5009520;28;20038;-57
2023/04/26 08:33:58;;;;;;;5.88;1.60;;;;;;;;;;5009768;28;20045;-57
2023/04/26 08:36:25;;;;;;;5.63;1.40;;;;;;;;;;5009162;28;20100;-57
2023/04/26 08:38:51;;;;;;;4.43;1.40;;;;;;;;;;5010053;28;20436;-56
2023/04/26 08:41:23;;;;;;;4.50;1.60;;;;;;;;;;5025010;28;20042;-56
2023/04/26 08:43:51;;;;;;;5.00;1.80;;;;;;;;;;5009036;28;20050;-55
2023/04/26 08:46:20;;;;;;;3.83;1.55;;;;;;;;;;5009469;28;20127;-58
2023/04/26 08:48:53;;;;;;;5.75;1.48;;;;;;;;;;5007981;28;20477;-57
2023/04/26 08:51:20;;;;;;;5.60;1.60;;;;;;;;;;5007929;28;20056;-58
2023/04/26 08:53:48;;;;;;;6.93;1.70;;;;;;;;;;5010834;28;20042;-54
2023/04/26 08:56:15;;;;;;;7.70;1.77;;;;;;;;;;5009227;28;20132;-55
2023/04/26 08:58:41;;;;;;;6.85;1.50;;;;;;;;;;5006784;28;20048;-57
2023/04/26 09:01:09;;;;;;;6.07;1.92;;;;;;;;;;5007388;28;20042;-56
2023/04/26 09:03:36;;;;;;;13.02;1.83;;;;;;;;;;5007631;28;20061;-56
2023/04/26 09:06:03;;;;;;;6.15;1.50;;;;;;;;;;5007685;28;20088;-56
2023/04/26 09:08:29;;;;;;;7.50;1.77;;;;;;;;;;5005766;28;20045;-56
2023/04/26 09:10:56;;;;;;;4.50;1.95;;;;;;;;;;5006633;28;20033;-57
2023/04/26 09:13:28;;;;;;;7.78;1.67;;;;;;;;;;5005600;28;20073;-57
2023/04/26 09:15:55;;;;;;;12.98;1.85;;;;;;;;;;5007638;28;20029;-57
2023/04/26 09:18:23;;;;;;;4.03;1.60;;;;;;;;;;5005010;28;20041;-60
2023/04/26 09:21:03;;;;;;;5.18;1.60;;;;;;;;;;5007345;28;20037;-57
2023/04/26 09:23:30;;;;;;;6.13;1.80;;;;;;;;;;5006357;28;20061;-57
2023/04/26 09:25:57;;;;;;;5.35;1.60;;;;;;;;;;5007097;28;20041;-57
2023/04/26 09:28:25;;;;;;;4.50;1.90;;;;;;;;;;5006318;28;20103;-57
2023/04/26 09:30:51;;;;;;;4.60;1.65;;;;;;;;;;5007226;28;20045;-56
2023/04/26 09:33:18;;;;;;;10.05;1.60;;;;;;;;;;5006482;28;20165;-57
2023/04/26 09:35:45;;;;;;;4.90;1.50;;;;;;;;;;5006537;28;20107;-59
2023/04/26 09:38:18;;;;;;;6.80;2.30;;;;;;;;;;5006800;28;20273;-58
2023/04/26 09:40:50;;;;;;;6.13;1.60;;;;;;;;;;5013217;28;20052;-57
2023/04/26 09:43:21;;;;;;;4.13;1.65;;;;;;;;;;5008117;28;20049;-57
2023/04/26 09:45:49;;;;;;;6.30;2.05;;;;;;;;;;5006170;28;20119;-55
2023/04/26 09:48:21;;;;;;;5.47;1.73;;;;;;;;;;5004823;28;20061;-56
2023/04/26 09:50:48;;;;;;;6.82;1.90;;;;;;;;;;5021094;28;20038;-56
2023/04/26 09:53:39;;;;;;;5.25;1.77;;;;;;;;;;5006193;28;20065;-57
2023/04/26 09:56:10;;;;;;;4.38;1.70;;;;;;;;;;5007587;28;20092;-58
2023/04/26 09:58:38;;;;;;;5.38;1.80;;;;;;;;;;5004966;28;20088;-57
2023/04/26 10:01:05;;;;;;;6.85;2.10;;;;;;;;;;5007599;28;20038;-59
2023/04/26 10:03:34;;;;;;;6.53;1.98;;;;;;;;;;5007433;28;20085;-61
2023/04/26 10:06:01;;;;;;;4.35;1.58;;;;;;;;;;5008505;28;20038;-57
2023/04/26 10:08:28;;;;;;;4.78;1.98;;;;;;;;;;5007443;28;21710;-60
2023/04/26 10:10:55;;;;;;;9.13;2.03;;;;;;;;;;5007722;28;20144;-56
2023/04/26 10:13:22;;;;;;;5.15;1.98;;;;;;;;;;5007425;28;20612;-56
2023/04/26 10:15:50;;;;;;;9.70;2.00;;;;;;;;;;5006879;28;20048;-55
2023/04/26 10:18:17;;;;;;;6.38;2.28;;;;;;;;;;5007265;28;20392;-56
2023/04/26 10:20:46;;;;;;;5.65;1.58;;;;;;;;;;5006442;28;20124;-56
2023/04/26 10:23:18;;;;;;;5.03;2.05;;;;;;;;;;5007060;28;20128;-59
2023/04/26 10:25:45;;;;;;;9.65;2.25;;;;;;;;;;5005322;28;20145;-58
2023/04/26 10:28:12;;;;;;;12.38;2.35;;;;;;;;;;5008111;28;20150;-57
2023/04/26 10:30:54;;;;;;;8.32;2.55;;;;;;;;;;5008281;28;20034;-60
2023/04/26 10:33:22;;;;;;;5.95;2.08;;;;;;;;;;5011313;28;20126;-57
2023/04/26 10:36:19;;;;;;;6.22;2.30;;;;;;;;;;5011192;28;20092;-58
2023/04/26 10:39:05;;;;;;;4.93;2.03;;;;;;;;;;5003574;28;20042;-60
2023/04/26 10:41:33;;;;;;;12.43;2.28;;;;;;;;;;5026895;28;20049;-58
2023/04/26 10:44:01;;;;;;;7.43;2.20;;;;;;;;;;5010025;28;20030;-56
2023/04/26 10:46:38;;;;;;;8.25;2.03;;;;;;;;;;5025720;28;20142;-56
2023/04/26 10:49:18;;;;;;;8.57;2.20;;;;;;;;;;5010869;28;20044;-59
2023/04/26 10:52:03;;;;;;;7.68;2.40;;;;;;;;;;5010875;28;20049;-57
2023/04/26 10:54:44;;;;;;;5.70;2.28;;;;;;;;;;5008442;28;20149;-59
2023/04/26 10:57:11;;;;;;;5.80;2.25;;;;;;;;;;5011141;28;20049;-54
2023/04/26 10:59:37;;;;;;;7.45;2.20;;;;;;;;;;5008979;28;20112;-55
2023/04/26 11:02:04;;;;;;;9.23;2.30;;;;;;;;;;5010521;28;20111;-59
2023/04/26 11:04:49;;;;;;;8.07;2.38;;;;;;;;;;5008249;28;20230;-56
2023/04/26 11:07:16;;;;;;;8.07;2.08;;;;;;;;;;5009505;28;20101;-56
2023/04/26 11:09:49;;;;;;;5.32;2.15;;;;;;;;;;5009627;28;20042;-57
2023/04/26 11:12:16;;;;;;;7.25;2.63;;;;;;;;;;5008841;28;20402;-57
2023/04/26 11:14:44;;;;;;;6.47;2.20;;;;;;;;;;5009585;28;20042;-59
2023/04/26 11:17:11;;;;;;;10.07;2.28;;;;;;;;;;5010288;28;20065;-57
2023/04/26 11:19:38;;;;;;;7.60;2.55;;;;;;;;;;5009007;28;20041;-57
2023/04/26 11:22:06;;;;;;;9.02;2.28;;;;;;;;;;5010504;28;20499;-58
2023/04/26 11:24:37;;;;;;;7.97;2.75;;;;;;;;;;5008713;28;20046;-57
2023/04/26 11:27:11;;;;;;;5.25;2.30;;;;;;;;;;5010913;28;20127;-57
2023/04/26 11:29:37;;;;;;;;;;;;;;;;;;5009698;28;20540;-59
2023/04/26 11:32:04;;;;;;;6.18;2.50;;;;;;;;;;5010495;28;20026;-57
2023/04/26 11:34:32;;;;;;;10.73;2.97;;;;;;;;;;5023780;28;20044;-59
2023/04/26 11:36:59;;;;;;;10.55;2.55;;;;;;;;;;5009981;28;20549;-58
2023/04/26 11:39:26;;;;;;;16.00;2.55;;;;;;;;;;5010305;28;20073;-57
2023/04/26 11:41:56;;;;;;;10.93;2.40;;;;;;;;;;5009460;28;20042;-56
2023/04/26 11:44:23;;;;;;;9.15;2.65;;;;;;;;;;5008200;28;20509;-57
2023/04/26 11:46:49;;;;;;;12.88;2.85;;;;;;;;;;5011828;28;20511;-59
2023/04/26 11:49:17;;;;;;;14.48;2.92;;;;;;;;;;5010838;28;20061;-57
2023/04/26 11:51:44;;;;;;;10.70;2.50;;;;;;;;;;5009480;28;20045;-55
2023/04/26 11:54:11;;;;;;;8.63;2.72;;;;;;;;;;5010333;28;20475;-56
2023/04/26 11:56:38;;;;;;;11.25;3.05;;;;;;;;;;5009854;28;20038;-56
2023/04/26 11:59:05;;;;;;;8.55;2.75;;;;;;;;;;5010059;28;20853;-57
2023/04/26 12:01:32;;;;;;;12.27;3.30;;;;;;;;;;5009435;28;20147;-57
2023/04/26 12:03:59;;;;;;;9.65;3.00;;;;;;;;;;5023299;28;20037;-55
2023/04/26 12:06:29;;;;;;;12.60;3.40;;;;;;;;;;5008516;28;20041;-58
2023/04/26 12:08:56;;;;;;;8.32;3.47;;;;;;;;;;5010106;28;20042;-55
2023/04/26 12:11:23;;;;;;;11.63;3.28;;;;;;;;;;5007228;28;20067;-56
2023/04/26 12:13:50;;;;;;;9.93;3.30;;;;;;;;;;5007683;28;20049;-58
2023/04/26 12:16:16;;;;;;;14.27;3.85;;;;;;;;;;5023340;28;20037;-60
2023/04/26 12:18:50;;;;;;;7.68;3.40;;;;;;;;;;5009496;28;20049;-58
2023/04/26 12:21:16;;;;;;;12.57;3.60;;;;;;;;;;5008513;28;20037;-57
2023/04/26 12:23:46;;;;;;;9.85;3.60;;;;;;;;;;5022029;28;20395;-56
2023/04/26 12:26:14;;;;;;;8.32;2.90;;;;;;;;;;5008792;28;20133;-57
2023/04/26 12:28:40;;;;;;;9.43;3.33;;;;;;;;;;5024815;28;20045;-58
2023/04/26 12:31:07;;;;;;;16.17;3.95;;;;;;;;;;5023265;28;20054;-56
2023/04/26 12:33:34;;;;;;;11.50;3.55;;;;;;;;;;5008339;28;20049;-60
2023/04/26 12:36:11;;;;;;;14.32;4.13;;;;;;;;;;5022558;28;20667;-56
2023/04/26 12:38:39;;;;;;;15.45;4.20;;;;;;;;;;5007780;28;20428;-57
2023/04/26 12:41:06;;;;;;;10.55;3.67;;;;;;;;;;5009519;28;20095;-60
2023/04/26 12:43:32;;;;;;;14.40;4.53;;;;;;;;;;5006329;28;20033;-57
2023/04/26 12:46:00;;;;;;;10.43;3.75;;;;;;;;;;5008609;28;20076;-57
2023/04/26 12:48:27;;;;;;;17.08;3.85;;;;;;;;;;5022438;28;20071;-58
2023/04/26 12:50:54;;;;;;;15.70;4.70;;;;;;;;;;5021621;28;20401;-58
2023/04/26 12:53:23;;;;;;;10.40;4.07;;;;;;;;;;5005887;28;20053;-55
2023/04/26 12:55:50;;;;;;;8.90;3.13;;;;;;;;;;5022309;28;20865;-57
2023/04/26 12:58:17;;;;;;;15.20;4.35;;;;;;;;;;5024448;28;21246;-57
2023/04/26 13:00:44;;;;;;;10.52;3.53;;;;;;;;;;5020024;28;20044;-58
2023/04/26 13:03:13;;;;;;;15.32;4.38;;;;;;;;;;5022867;28;20041;-63
2023/04/26 13:05:40;;;;;;;11.55;3.92;;;;;;;;;;5007889;28;20087;-55
2023/04/26 13:08:07;;;;;;;10.93;4.00;;;;;;;;;;5007555;28;20089;-57
2023/04/26 13:10:33;;;;;;;12.45;3.78;;;;;;;;;;5005940;28;20034;-56
2023/04/26 13:13:00;;;;;;;11.02;4.40;;;;;;;;;;5006391;28;20045;-58
2023/04/26 13:15:28;;;;;;;9.13;3.63;;;;;;;;;;5007890;28;20057;-56
2023/04/26 13:17:55;;;;;;;13.27;4.30;;;;;;;;;;5009970;28;20029;-59
2023/04/26 13:20:22;;;;;;;12.93;4.22;;;;;;;;;;5008178;28;20549;-58
2023/04/26 13:22:50;;;;;;;16.13;4.68;;;;;;;;;;5009138;28;20056;-55
2023/04/26 13:25:18;;;;;;;14.77;4.22;;;;;;;;;;5008553;28;20033;-57
2023/04/26 13:27:45;;;;;;;11.63;4.20;;;;;;;;;;5007636;28;20537;-59
2023/04/26 13:30:12;;;;;;;21.45;4.45;;;;;;;;;;5008386;28;20029;-57
2023/04/26 13:32:39;;;;;;;9.10;4.32;;;;;;;;;;5004426;28;20118;-59
2023/04/26 13:35:06;;;;;;;9.10;3.63;;;;;;;;;;5007518;28;20037;-57
2023/04/26 13:37:33;;;;;;;9.73;3.78;;;;;;;;;;5008979;28;20562;-57
2023/04/26 13:40:00;;;;;;;16.83;3.58;;;;;;;;;;5008543;28;20046;-56
2023/04/26 13:42:27;;;;;;;12.75;3.67;;;;;;;;;;5007583;28;20037;-56
2023/04/26 13:44:53;;;;;;;9.82;3.42;;;;;;;;;;5008695;28;20506;-60
2023/04/26 13:47:20;;;;;;;12.10;3.42;;;;;;;;;;5007948;28;20050;-56
2023/04/26 13:49:47;;;;;;;12.35;2.90;;;;;;;;;;5008303;28;20092;-55
2023/04/26 13:52:13;;;;;;;11.25;3.03;;;;;;;;;;5007618;28;20665;-59
2023/04/26 13:54:40;;;;;;;11.13;2.95;;;;;;;;;;5007545;28;20071;-57
2023/04/26 13:57:07;;;;;;;13.27;3.05;;;;;;;;;;5009407;28;20358;-59
2023/04/26 13:59:33;;;;;;;8.60;2.90;;;;;;;;;;5006814;28;20095;-59
2023/04/26 14:02:00;;;;;;;12.95;3.00;;;;;;;;;;5007046;28;20844;-57
2023/04/26 14:04:27;;;;;;;13.93;2.90;;;;;;;;;;5009375;28;20131;-59
2023/04/26 14:06:53;;;;;;;5.60;2.58;;;;;;;;;;5011820;28;20053;-56
2023/04/26 14:09:20;;;;;;;8.85;2.72;;;;;;;;;;5025986;28;20041;-58
2023/04/26 14:11:47;;;;;;;8.23;2.97;;;;;;;;;;5011521;28;20086;-59
2023/04/26 14:14:14;;;;;;;13.18;2.92;;;;;;;;;;5010360;28;20114;-60
2023/04/26 14:16:41;;;;;;;8.57;3.08;;;;;;;;;;5012366;28;20038;-57
2023/04/26 14:19:07;;;;;;;7.50;2.78;;;;;;;;;;5011719;28;20046;-58
2023/04/26 14:21:34;;;;;;;13.45;2.90;;;;;;;;;;5009974;28;20121;-60
2023/04/26 14:24:01;;;;;;;14.50;3.05;;;;;;;;;;5010876;28;20760;-58
2023/04/26 14:26:27;;;;;;;7.40;2.25;;;;;;;;;;5013505;28;20041;-60
2023/04/26 14:28:54;;;;;;;7.82;2.72;;;;;;;;;;5013219;28;20402;-56
2023/04/26 14:31:23;;;;;;;18.35;2.85;;;;;;;;;;5011889;28;20030;-57
2023/04/26 14:33:50;;;;;;;7.13;3.13;;;;;;;;;;5012382;28;20541;-58
2023/04/26 14:36:17;;;;;;;11.07;3.30;;;;;;;;;;5012902;28;20069;-57
2023/04/26 14:38:44;;;;;;;11.85;3.60;;;;;;;;;;5014198;28;20034;-56
2023/04/26 14:41:15;;;;;;;7.35;3.50;;;;;;;;;;5012537;28;20148;-55
2023/04/26 14:43:44;;;;;;;6.72;3.60;;;;;;;;;;5010260;28;20480;-55